KEJ weather

Kemerovo Airport
Kemerovo, Kemerovo Oblast, Russia

Public forecast

Using degrees Celsius for public forecast. Weather courtesy of forecast.io.

METAR (pilot weather report)

Retrieved 2019/07/21 03:30 UTC (0 seconds ago):

UNEE 210330Z 36005MPS 7000 NSC 15/09 Q1008 R23/CLRD60 NOSIG RMK QFE733

TAF (pilot weather forecast)

Retrieved 2019/07/21 03:00 UTC (29 minutes ago):

TAF UNEE 210200Z 2103/2203 35003G08MPS 3100 BR FU SCT011 TEMPO 2103/2105 SCT002 BKN011 BECMG 2105/2106 9999 NSW SCT030CB